Akademik Fedorov — UCKZ — position and weather

sailwx.info

Track history (hours):
 
Tides and Currents Weather Stations Pressure Air Temp Water Temp Dewpoint Dewpoint Depression Visibility Wind Speed Wind Dir Waves Ship Positions

Oceanographic research ship Akademik Fedorov (Russia)

Detailed information on ship capabilities available from ARCUS's ALIAS (Arctic Logistics Information and Support) project.

Last reported at 2020-Aug-26 11:29 UTC. Time now 2020-Oct-01 13:08 UTC.
Position N 68°24' E 010°40'.
Warning: this ship's position is 36 days out of date.

Length 141 m; beam 17 m.

Type: Other ship. MMSI: 273412710.

Date/timePositionNaut miles runAvg speedWind from/ knotsBaromVisibWave heightAir tempDewpointWater temp
2020-Aug-26 11:29N 68°24' E 010°40'713.4
2020-Aug-26 10:59N 68°19' E 010°28'713.3
2020-Aug-26 10:29N 68°13' E 010°18'4113.8
2020-Aug-26 07:30N 67°37' E 009°26'713.5
2020-Aug-26 07:00N 67°31' E 009°18'24213.8
2020-Aug-25 13:28N 63°52' E 005°11'1614.2
2020-Aug-25 12:20N 63°37' E 004°55'513.7
2020-Aug-25 11:59N 63°33' E 004°51'2813.9
2020-Aug-25 10:00N 63°08' E 004°25'5012.4
2020-Aug-25 06:01N 62°19' E 004°11'1312.5
2020-Aug-25 05:00N 62°06' E 004°10'1312.5
2020-Aug-25 04:00N 61°54' E 004°10'612.5
2020-Aug-25 03:30N 61°48' E 004°09'612.7
2020-Aug-25 03:00N 61°41' E 004°08'713.2
2020-Aug-25 02:30N 61°35' E 004°07'2813.8
2020-Aug-25 00:30N 61°07' E 004°04'4913.9
2020-Aug-24 21:00N 60°19' E 004°09'4914.0
2020-Aug-24 17:30N 59°30' E 004°10'10713.4
2020-Aug-24 09:30N 58°01' E 006°06'714.8
2020-Aug-24 09:00N 57°57' E 006°17'815.0
2020-Aug-24 08:30N 57°52' E 006°28'4214.1
2020-Aug-24 05:30N 57°45' E 007°47'2315.4
2020-Aug-24 04:00N 57°49' E 008°29'1414.4
2020-Aug-24 03:00N 57°51' E 008°56'1413.9
2020-Aug-24 02:00N 57°53' E 009°22'713.7
2020-Aug-24 01:30N 57°54' E 009°34'1413.6
2020-Aug-24 00:29N 57°56' E 010°00'3712.5
2020-Aug-23 21:30N 57°43' E 011°06'714.1
2020-Aug-23 21:00N 57°38' E 011°14'714.2
2020-Aug-23 20:30N 57°32' E 011°22'2914.5
2020-Aug-23 18:31N 57°05' E 011°43'7613.7
2020-Aug-23 13:00N 55°54' E 010°56'714.8
2020-Aug-23 12:30N 55°48' E 010°49'4914.1
2020-Aug-23 09:00N 54°60' E 011°02'714.9
2020-Aug-23 08:30N 54°54' E 010°54'42 7.4
2020-Aug-23 02:52N 54°20' E 010°10'0 0.0
2020-Aug-23 02:22N 54°20' E 010°10'0 0.0
2020-Aug-23 01:52N 54°20' E 010°10'0 0.0
2020-Aug-23 00:52N 54°20' E 010°10'0 0.0
2020-Aug-23 00:22N 54°20' E 010°10'0 0.0
2020-Aug-22 20:28N 54°20' E 010°10'0 0.0
2020-Aug-22 17:25N 54°20' E 010°10'0 0.0
2020-Aug-22 15:55N 54°20' E 010°10'0 0.0
2020-Aug-22 14:58N 54°20' E 010°10'0 0.0
2020-Aug-22 14:28N 54°20' E 010°10'0 0.0
2020-Aug-22 12:58N 54°20' E 010°10'0 0.0
2020-Aug-22 11:28N 54°20' E 010°10'0 0.0
2020-Aug-22 08:58N 54°20' E 010°10'0 0.0
2020-Aug-22 03:52N 54°20' E 010°10'0 0.0
2020-Aug-22 02:25N 54°20' E 010°10'0 0.0
2020-Aug-22 00:28N 54°20' E 010°10'0 0.0
2020-Aug-21 23:58N 54°20' E 010°10'0 0.0
2020-Aug-21 19:58N 54°20' E 010°10'0 0.0
2020-Aug-21 15:22N 54°20' E 010°10'0 0.0
2020-Aug-21 14:22N 54°20' E 010°10'0 0.0
2020-Aug-21 13:25N 54°20' E 010°10'0 0.0
2020-Aug-21 10:28N 54°20' E 010°10'0 0.0
2020-Aug-21 09:28N 54°20' E 010°10'0 0.1
2020-Aug-21 06:00N 54°20' E 010°10'4 7.7
2020-Aug-21 05:31N 54°24' E 010°12'3112.3
2020-Aug-21 03:00N 54°36' E 011°01'1313.0
2020-Aug-21 02:00N 54°33' E 011°23'713.4
2020-Aug-21 01:31N 54°30' E 011°33'2013.6
2020-Aug-21 00:01N 54°27' E 012°08'1912.8
2020-Aug-20 22:30N 54°42' E 012°29'2813.6
2020-Aug-20 20:27N 54°54' E 013°13'5413.7
2020-Aug-20 16:30N 55°24' E 014°32'4713.3
2020-Aug-20 13:00N 55°43' E 015°47'1413.7
2020-Aug-20 12:00N 55°46' E 016°11'1413.8
2020-Aug-20 11:01N 55°50' E 016°35'713.8
2020-Aug-20 10:30N 55°51' E 016°47'2813.8
2020-Aug-20 08:30N 55°58' E 017°34'2113.7
2020-Aug-20 07:00N 56°08' E 018°06'18 9.2
2020-Aug-20 05:00N 56°18' E 018°34'16611.0
2020-Aug-19 14:00N 58°43' E 021°04'4816.1
2020-Aug-19 11:01N 59°20' E 022°04'4015.9
2020-Aug-19 08:31N 59°37' E 023°14'1616.0
2020-Aug-19 07:31N 59°42' E 023°44'816.1
2020-Aug-19 07:00N 59°44' E 023°60'6416.1
2020-Aug-19 03:01N 59°58' E 026°05'1616.2
2020-Aug-19 02:00N 60°02' E 026°37'816.1
2020-Aug-19 01:30N 60°00' E 026°53'1515.2
2020-Aug-19 00:30N 60°05' E 027°22'816.3
2020-Aug-19 00:00N 60°09' E 027°36'1515.1
2020-Aug-18 23:00N 60°10' E 028°06'5014.4
2020-Aug-18 19:30N 59°59' E 029°45'16 6.1
2020-Aug-18 16:56N 59°53' E 030°14'0 0.0
2020-Aug-18 15:59N 59°53' E 030°14'0 0.0
2020-Aug-18 10:59N 59°53' E 030°14'0 0.0
2020-Aug-18 06:29N 59°53' E 030°14'0 0.0
2020-Aug-18 04:59N 59°53' E 030°14'0 0.0
2020-Aug-18 02:29N 59°53' E 030°14'0 0.0
2020-Aug-17 23:29N 59°53' E 030°14'0 0.0
2020-Aug-17 21:29N 59°53' E 030°14'0 0.0
2020-Aug-17 20:29N 59°53' E 030°14'0 0.0
2020-Aug-17 19:29N 59°53' E 030°14'0 0.0
2020-Aug-17 16:59N 59°53' E 030°14'0 0.0
2020-Aug-17 12:29N 59°53' E 030°14'0 0.0
2020-Aug-17 07:59N 59°53' E 030°14'0 0.0
2020-Aug-17 07:29N 59°53' E 030°14'0 0.0
2020-Aug-17 06:29N 59°53' E 030°14'0 0.0
2020-Aug-17 04:59N 59°53' E 030°14'0 0.0
2020-Aug-17 02:29N 59°53' E 030°14'0 0.0
2020-Aug-16 21:59N 59°53' E 030°14'0 0.0
2020-Aug-16 21:29N 59°53' E 030°14'0 0.0
2020-Aug-16 20:29N 59°53' E 030°14'0 0.0
2020-Aug-16 19:29N 59°53' E 030°14'0 0.0
2020-Aug-16 13:59N 59°53' E 030°14'  
Track history (hours):
 
Tides and Currents Weather Stations Pressure Air Temp Water Temp Dewpoint Dewpoint Depression Visibility Wind Speed Wind Dir Waves Ship Positions

Oceanographic research ship Akademik Fedorov (Russia)

Detailed information on ship capabilities available from ARCUS's ALIAS (Arctic Logistics Information and Support) project.

Last reported at 2020-Aug-26 11:29 UTC. Time now 2020-Oct-01 13:08 UTC.
Position N 68°24' E 010°40'.
Warning: this ship's position is 36 days out of date.

Length 141 m; beam 17 m.

Type: Other ship. MMSI: 273412710.

Date/timePositionNaut miles runAvg speedWind from/ knotsBaromVisibWave heightAir tempDewpointWater temp
2020-Aug-26 11:29N 68°24' E 010°40'713.4
2020-Aug-26 10:59N 68°19' E 010°28'713.3
2020-Aug-26 10:29N 68°13' E 010°18'4113.8
2020-Aug-26 07:30N 67°37' E 009°26'713.5
2020-Aug-26 07:00N 67°31' E 009°18'24213.8
2020-Aug-25 13:28N 63°52' E 005°11'1614.2
2020-Aug-25 12:20N 63°37' E 004°55'513.7
2020-Aug-25 11:59N 63°33' E 004°51'2813.9
2020-Aug-25 10:00N 63°08' E 004°25'5012.4
2020-Aug-25 06:01N 62°19' E 004°11'1312.5
2020-Aug-25 05:00N 62°06' E 004°10'1312.5
2020-Aug-25 04:00N 61°54' E 004°10'612.5
2020-Aug-25 03:30N 61°48' E 004°09'612.7
2020-Aug-25 03:00N 61°41' E 004°08'713.2
2020-Aug-25 02:30N 61°35' E 004°07'2813.8
2020-Aug-25 00:30N 61°07' E 004°04'4913.9
2020-Aug-24 21:00N 60°19' E 004°09'4914.0
2020-Aug-24 17:30N 59°30' E 004°10'10713.4
2020-Aug-24 09:30N 58°01' E 006°06'714.8
2020-Aug-24 09:00N 57°57' E 006°17'815.0
2020-Aug-24 08:30N 57°52' E 006°28'4214.1
2020-Aug-24 05:30N 57°45' E 007°47'2315.4
2020-Aug-24 04:00N 57°49' E 008°29'1414.4
2020-Aug-24 03:00N 57°51' E 008°56'1413.9
2020-Aug-24 02:00N 57°53' E 009°22'713.7
2020-Aug-24 01:30N 57°54' E 009°34'1413.6
2020-Aug-24 00:29N 57°56' E 010°00'3712.5
2020-Aug-23 21:30N 57°43' E 011°06'714.1
2020-Aug-23 21:00N 57°38' E 011°14'714.2
2020-Aug-23 20:30N 57°32' E 011°22'2914.5
2020-Aug-23 18:31N 57°05' E 011°43'7613.7
2020-Aug-23 13:00N 55°54' E 010°56'714.8
2020-Aug-23 12:30N 55°48' E 010°49'4914.1
2020-Aug-23 09:00N 54°60' E 011°02'714.9
2020-Aug-23 08:30N 54°54' E 010°54'42 7.4
2020-Aug-23 02:52N 54°20' E 010°10'0 0.0
2020-Aug-23 02:22N 54°20' E 010°10'0 0.0
2020-Aug-23 01:52N 54°20' E 010°10'0 0.0
2020-Aug-23 00:52N 54°20' E 010°10'0 0.0
2020-Aug-23 00:22N 54°20' E 010°10'0 0.0
2020-Aug-22 20:28N 54°20' E 010°10'0 0.0
2020-Aug-22 17:25N 54°20' E 010°10'0 0.0
2020-Aug-22 15:55N 54°20' E 010°10'0 0.0
2020-Aug-22 14:58N 54°20' E 010°10'0 0.0
2020-Aug-22 14:28N 54°20' E 010°10'0 0.0
2020-Aug-22 12:58N 54°20' E 010°10'0 0.0
2020-Aug-22 11:28N 54°20' E 010°10'0 0.0
2020-Aug-22 08:58N 54°20' E 010°10'0 0.0
2020-Aug-22 03:52N 54°20' E 010°10'0 0.0
2020-Aug-22 02:25N 54°20' E 010°10'0 0.0
2020-Aug-22 00:28N 54°20' E 010°10'0 0.0
2020-Aug-21 23:58N 54°20' E 010°10'0 0.0
2020-Aug-21 19:58N 54°20' E 010°10'0 0.0
2020-Aug-21 15:22N 54°20' E 010°10'0 0.0
2020-Aug-21 14:22N 54°20' E 010°10'0 0.0
2020-Aug-21 13:25N 54°20' E 010°10'0 0.0
2020-Aug-21 10:28N 54°20' E 010°10'0 0.0
2020-Aug-21 09:28N 54°20' E 010°10'0 0.1
2020-Aug-21 06:00N 54°20' E 010°10'4 7.7
2020-Aug-21 05:31N 54°24' E 010°12'3112.3
2020-Aug-21 03:00N 54°36' E 011°01'1313.0
2020-Aug-21 02:00N 54°33' E 011°23'713.4
2020-Aug-21 01:31N 54°30' E 011°33'2013.6
2020-Aug-21 00:01N 54°27' E 012°08'1912.8
2020-Aug-20 22:30N 54°42' E 012°29'2813.6
2020-Aug-20 20:27N 54°54' E 013°13'5413.7
2020-Aug-20 16:30N 55°24' E 014°32'4713.3
2020-Aug-20 13:00N 55°43' E 015°47'1413.7
2020-Aug-20 12:00N 55°46' E 016°11'1413.8
2020-Aug-20 11:01N 55°50' E 016°35'713.8
2020-Aug-20 10:30N 55°51' E 016°47'2813.8
2020-Aug-20 08:30N 55°58' E 017°34'2113.7
2020-Aug-20 07:00N 56°08' E 018°06'18 9.2
2020-Aug-20 05:00N 56°18' E 018°34'16611.0
2020-Aug-19 14:00N 58°43' E 021°04'4816.1
2020-Aug-19 11:01N 59°20' E 022°04'4015.9
2020-Aug-19 08:31N 59°37' E 023°14'1616.0
2020-Aug-19 07:31N 59°42' E 023°44'816.1
2020-Aug-19 07:00N 59°44' E 023°60'6416.1
2020-Aug-19 03:01N 59°58' E 026°05'1616.2
2020-Aug-19 02:00N 60°02' E 026°37'816.1
2020-Aug-19 01:30N 60°00' E 026°53'1515.2
2020-Aug-19 00:30N 60°05' E 027°22'816.3
2020-Aug-19 00:00N 60°09' E 027°36'1515.1
2020-Aug-18 23:00N 60°10' E 028°06'5014.4
2020-Aug-18 19:30N 59°59' E 029°45'16 6.1
2020-Aug-18 16:56N 59°53' E 030°14'0 0.0
2020-Aug-18 15:59N 59°53' E 030°14'0 0.0
2020-Aug-18 10:59N 59°53' E 030°14'0 0.0
2020-Aug-18 06:29N 59°53' E 030°14'0 0.0
2020-Aug-18 04:59N 59°53' E 030°14'0 0.0
2020-Aug-18 02:29N 59°53' E 030°14'0 0.0
2020-Aug-17 23:29N 59°53' E 030°14'0 0.0
2020-Aug-17 21:29N 59°53' E 030°14'0 0.0
2020-Aug-17 20:29N 59°53' E 030°14'0 0.0
2020-Aug-17 19:29N 59°53' E 030°14'0 0.0
2020-Aug-17 16:59N 59°53' E 030°14'0 0.0
2020-Aug-17 12:29N 59°53' E 030°14'0 0.0
2020-Aug-17 07:59N 59°53' E 030°14'0 0.0
2020-Aug-17 07:29N 59°53' E 030°14'0 0.0
2020-Aug-17 06:29N 59°53' E 030°14'0 0.0
2020-Aug-17 04:59N 59°53' E 030°14'0 0.0
2020-Aug-17 02:29N 59°53' E 030°14'0 0.0
2020-Aug-16 21:59N 59°53' E 030°14'0 0.0
2020-Aug-16 21:29N 59°53' E 030°14'0 0.0
2020-Aug-16 20:29N 59°53' E 030°14'0 0.0
2020-Aug-16 19:29N 59°53' E 030°14'0 0.0
2020-Aug-16 13:59N 59°53' E 030°14'  

Dump ship's entire track history